createdAt,value
2022-08-28T00:00:20.662Z,38.28
2022-08-28T00:02:48.083Z,38.30
2022-08-28T00:05:17.102Z,38.43
2022-08-28T00:07:47.639Z,38.44
2022-08-28T00:10:17.484Z,38.41
2022-08-28T00:12:47.005Z,38.29
2022-08-28T00:15:17.435Z,38.48
2022-08-28T00:17:44.822Z,38.14
2022-08-28T00:20:12.915Z,38.48
2022-08-28T00:22:40.520Z,38.48
2022-08-28T00:25:09.489Z,38.51
2022-08-28T00:27:55.048Z,38.44
2022-08-28T00:30:26.913Z,38.62
2022-08-28T00:32:55.680Z,38.53
2022-08-28T00:35:23.817Z,38.48
2022-08-28T00:37:51.202Z,38.57
2022-08-28T00:40:19.972Z,38.56
2022-08-28T00:42:55.706Z,38.44
2022-08-28T00:45:24.037Z,38.41
2022-08-28T00:47:52.856Z,38.35
2022-08-28T00:50:23.111Z,38.55
2022-08-28T00:52:53.455Z,38.63
2022-08-28T00:55:23.041Z,38.62
2022-08-28T00:57:56.519Z,38.42
2022-08-28T01:00:33.800Z,38.77
2022-08-28T01:03:00.558Z,38.63
2022-08-28T01:05:28.903Z,38.58
2022-08-28T01:07:58.753Z,38.38
2022-08-28T01:10:28.116Z,38.75
2022-08-28T01:12:56.911Z,38.71
2022-08-28T01:15:28.348Z,38.64
2022-08-28T01:18:04.647Z,38.65
2022-08-28T01:20:35.799Z,38.70
2022-08-28T01:23:07.055Z,38.94
2022-08-28T01:25:35.795Z,39.01
2022-08-28T01:28:05.236Z,39.14
2022-08-28T01:30:32.494Z,39.34
2022-08-28T01:32:59.209Z,39.06
2022-08-28T01:35:31.136Z,39.45
2022-08-28T01:37:57.801Z,39.62
2022-08-28T01:40:39.566Z,39.58
2022-08-28T01:43:14.883Z,39.64
2022-08-28T01:45:45.040Z,39.47
2022-08-28T01:48:14.296Z,39.70
2022-08-28T01:50:42.205Z,39.50
2022-08-28T01:53:12.387Z,39.71
2022-08-28T01:55:39.340Z,39.58
2022-08-28T01:58:06.908Z,39.99
2022-08-28T02:00:33.804Z,39.99
2022-08-28T02:03:00.880Z,40.16
2022-08-28T02:05:30.486Z,39.82
2022-08-28T02:07:57.756Z,40.28
2022-08-28T02:10:25.323Z,40.15
2022-08-28T02:12:53.357Z,40.17
2022-08-28T02:15:20.034Z,40.23
2022-08-28T02:17:50.298Z,40.37
2022-08-28T02:20:17.325Z,40.15
2022-08-28T02:22:44.526Z,40.39
2022-08-28T02:25:12.060Z,40.31
2022-08-28T02:27:39.060Z,40.29
2022-08-28T02:30:08.032Z,40.43
2022-08-28T02:32:35.164Z,40.33
2022-08-28T02:35:02.630Z,40.46
2022-08-28T02:37:29.143Z,40.56
2022-08-28T02:39:58.076Z,40.68
2022-08-28T02:42:26.277Z,40.54
2022-08-28T02:44:52.883Z,40.59
2022-08-28T02:47:19.583Z,40.44
2022-08-28T02:49:46.096Z,40.41
2022-08-28T02:52:12.809Z,40.60
2022-08-28T02:54:40.060Z,40.52
2022-08-28T02:57:08.323Z,40.75
2022-08-28T02:59:38.579Z,41.12
2022-08-28T03:02:07.263Z,40.91
2022-08-28T03:04:35.550Z,41.02
2022-08-28T03:07:02.548Z,40.87
2022-08-28T03:09:29.217Z,41.42
2022-08-28T03:11:55.759Z,40.92
2022-08-28T03:14:22.995Z,41.19
2022-08-28T03:16:50.206Z,41.15
2022-08-28T03:19:16.749Z,41.25
2022-08-28T03:21:43.255Z,41.39
2022-08-28T03:24:10.206Z,41.49
2022-08-28T03:26:41.729Z,41.23
2022-08-28T03:29:08.260Z,41.66
2022-08-28T03:31:36.134Z,41.58
2022-08-28T03:34:02.638Z,41.61
2022-08-28T03:36:29.559Z,41.70
2022-08-28T03:38:59.263Z,41.76
2022-08-28T03:41:29.094Z,41.61
2022-08-28T03:43:57.682Z,41.73
2022-08-28T03:46:24.754Z,41.46
2022-08-28T03:48:52.327Z,41.55
2022-08-28T03:51:29.393Z,41.86
2022-08-28T03:53:57.991Z,41.77
2022-08-28T03:56:25.968Z,41.87
2022-08-28T03:58:57.477Z,42.15
2022-08-28T04:01:24.763Z,42.13
2022-08-28T04:03:51.522Z,42.22
2022-08-28T04:06:19.489Z,42.20
2022-08-28T04:08:46.457Z,41.95
2022-08-28T04:11:13.118Z,42.39
2022-08-28T04:13:41.567Z,42.28
2022-08-28T04:16:10.951Z,42.52
2022-08-28T04:18:40.577Z,42.46
2022-08-28T04:21:11.728Z,42.87
2022-08-28T04:23:39.708Z,42.67
2022-08-28T04:26:07.902Z,42.76
2022-08-28T04:28:35.374Z,42.78
2022-08-28T04:31:03.088Z,42.97
2022-08-28T04:33:30.491Z,42.80
2022-08-28T04:35:57.438Z,42.94
2022-08-28T04:38:24.267Z,43.05
2022-08-28T04:40:50.809Z,43.19
2022-08-28T04:43:17.403Z,43.08
2022-08-28T04:45:45.670Z,43.25
2022-08-28T04:48:13.714Z,43.20
2022-08-28T04:50:48.906Z,43.33
2022-08-28T04:53:18.816Z,43.43
2022-08-28T04:55:54.072Z,43.41
2022-08-28T04:58:23.993Z,43.55
2022-08-28T05:00:52.924Z,43.49
2022-08-28T05:03:19.463Z,43.25
2022-08-28T05:05:55.091Z,43.68
2022-08-28T05:08:24.678Z,43.65
2022-08-28T05:10:51.185Z,43.46
2022-08-28T05:13:18.587Z,43.55
2022-08-28T05:15:48.240Z,43.86
2022-08-28T05:18:16.746Z,43.72
2022-08-28T05:20:45.912Z,43.46
2022-08-28T05:23:13.554Z,43.71
2022-08-28T05:25:43.076Z,43.64
2022-08-28T05:28:12.277Z,43.65
2022-08-28T05:30:41.343Z,43.89
2022-08-28T05:33:09.897Z,43.53
2022-08-28T05:35:38.305Z,43.57
2022-08-28T05:38:05.791Z,43.42
2022-08-28T05:40:32.500Z,43.42
2022-08-28T05:42:59.376Z,43.38
2022-08-28T05:45:25.930Z,43.35
2022-08-28T05:47:52.732Z,43.64
2022-08-28T05:50:19.240Z,43.50
2022-08-28T05:52:45.722Z,43.58
2022-08-28T05:55:13.238Z,43.65
2022-08-28T05:57:40.938Z,43.70
2022-08-28T06:00:13.684Z,43.47
2022-08-28T06:02:42.055Z,43.43
2022-08-28T06:05:12.931Z,43.21
2022-08-28T06:07:41.047Z,43.35
2022-08-28T06:10:10.578Z,43.26
2022-08-28T06:12:37.941Z,43.21
2022-08-28T06:15:06.016Z,43.12
2022-08-28T06:17:32.684Z,43.52
2022-08-28T06:19:59.297Z,43.38
2022-08-28T06:22:25.806Z,43.34
2022-08-28T06:24:52.343Z,43.31
2022-08-28T06:27:18.919Z,43.43
2022-08-28T06:29:45.857Z,42.98
2022-08-28T06:32:13.259Z,43.04
2022-08-28T06:34:39.990Z,43.03
2022-08-28T06:37:06.664Z,42.80
2022-08-28T06:39:33.164Z,42.74
2022-08-28T06:41:59.972Z,42.83
2022-08-28T06:44:27.981Z,43.02
2022-08-28T06:46:54.834Z,42.92
2022-08-28T06:49:21.935Z,42.81
2022-08-28T06:51:48.742Z,42.81
2022-08-28T06:54:21.410Z,42.71
2022-08-28T06:56:49.514Z,42.40
2022-08-28T06:59:16.032Z,42.50
2022-08-28T07:01:42.577Z,42.56
2022-08-28T07:04:11.944Z,42.35
2022-08-28T07:06:41.272Z,42.18
2022-08-28T07:09:11.092Z,42.15
2022-08-28T07:11:38.576Z,42.16
2022-08-28T07:14:06.908Z,42.08
2022-08-28T07:16:38.320Z,42.10
2022-08-28T07:19:11.253Z,41.82
2022-08-28T07:21:40.003Z,41.92
2022-08-28T07:24:08.520Z,41.63
2022-08-28T07:26:35.864Z,41.96
2022-08-28T07:29:10.951Z,41.89
2022-08-28T07:31:46.496Z,42.17
2022-08-28T07:34:14.660Z,42.13
2022-08-28T07:36:41.985Z,41.95
2022-08-28T07:39:10.066Z,42.33
2022-08-28T07:41:40.119Z,42.49
2022-08-28T07:44:26.319Z,42.74
2022-08-28T07:46:57.975Z,41.87
2022-08-28T07:49:25.711Z,40.99
2022-08-28T07:51:54.202Z,40.09
2022-08-28T07:54:21.467Z,39.59
2022-08-28T07:56:47.966Z,38.88
2022-08-28T07:59:19.359Z,38.48
2022-08-28T08:01:50.681Z,37.94
2022-08-28T08:04:23.762Z,38.22
2022-08-28T08:06:57.618Z,38.35
2022-08-28T08:09:25.341Z,38.83
2022-08-28T08:11:52.291Z,38.22
2022-08-28T08:14:18.943Z,37.97
2022-08-28T08:16:47.416Z,37.48
2022-08-28T08:19:15.514Z,37.40
2022-08-28T08:21:54.679Z,36.46
2022-08-28T08:24:37.371Z,36.94
2022-08-28T08:27:04.096Z,36.36
2022-08-28T08:29:53.987Z,36.62
2022-08-28T08:32:20.627Z,36.08
2022-08-28T08:34:47.358Z,35.89
2022-08-28T08:37:14.121Z,35.98
2022-08-28T08:39:42.563Z,35.45
2022-08-28T08:42:23.032Z,35.75
2022-08-28T08:44:51.960Z,35.31
2022-08-28T08:47:51.535Z,35.20
2022-08-28T08:50:30.891Z,35.26
2022-08-28T08:53:23.459Z,35.15
2022-08-28T08:55:57.860Z,35.63
2022-08-28T08:58:36.614Z,35.53
2022-08-28T09:01:31.373Z,35.57
2022-08-28T09:04:04.298Z,35.15
2022-08-28T09:06:59.440Z,35.43
2022-08-28T09:09:41.935Z,34.84
2022-08-28T09:12:14.099Z,35.09
2022-08-28T09:15:05.196Z,34.82
2022-08-28T09:17:47.889Z,34.50
2022-08-28T09:20:25.916Z,34.61
2022-08-28T09:22:59.836Z,34.91
2022-08-28T09:25:44.626Z,34.81
2022-08-28T09:28:23.567Z,34.81
2022-08-28T09:31:01.375Z,34.71
2022-08-28T09:33:49.556Z,34.98
2022-08-28T09:36:31.881Z,35.04
2022-08-28T09:39:32.542Z,34.77
2022-08-28T09:42:33.057Z,35.26
2022-08-28T09:45:20.157Z,34.65
2022-08-28T09:47:51.092Z,34.22
2022-08-28T09:50:29.031Z,34.01
2022-08-28T09:52:58.601Z,34.15
2022-08-28T09:55:36.037Z,33.57
2022-08-28T09:58:04.033Z,33.35
2022-08-28T10:00:36.097Z,33.04
2022-08-28T10:03:21.398Z,33.34
2022-08-28T10:06:18.616Z,33.48
2022-08-28T10:09:13.659Z,32.98
2022-08-28T10:11:52.268Z,33.20
2022-08-28T10:14:38.256Z,32.67
2022-08-28T10:17:26.007Z,33.17
2022-08-28T10:20:01.831Z,32.39
2022-08-28T10:22:47.715Z,31.95
2022-08-28T10:25:14.167Z,32.42
2022-08-28T10:27:49.811Z,32.82
2022-08-28T10:30:22.887Z,32.72
2022-08-28T10:32:59.565Z,32.60
2022-08-28T10:35:40.066Z,31.98
2022-08-28T10:38:16.237Z,32.34
2022-08-28T10:41:04.148Z,31.59
2022-08-28T10:43:41.538Z,31.37
2022-08-28T10:46:42.616Z,31.98
2022-08-28T10:49:21.294Z,30.97
2022-08-28T10:51:57.165Z,30.85
2022-08-28T10:55:00.250Z,31.56
2022-08-28T10:57:49.065Z,31.28
2022-08-28T11:00:21.862Z,31.66
2022-08-28T11:03:01.015Z,31.45
2022-08-28T11:05:35.798Z,30.95
2022-08-28T11:08:07.771Z,30.92
2022-08-28T11:10:37.088Z,31.34
2022-08-28T11:13:07.116Z,31.04
2022-08-28T11:15:37.159Z,31.06
2022-08-28T11:18:16.382Z,30.94
2022-08-28T11:20:55.518Z,30.33
2022-08-28T11:23:30.057Z,29.86
2022-08-28T11:26:02.241Z,29.94
2022-08-28T11:28:34.696Z,29.91
2022-08-28T11:31:01.179Z,29.84
2022-08-28T11:33:39.926Z,30.00
2022-08-28T11:36:32.579Z,30.19
2022-08-28T11:39:02.993Z,30.07
2022-08-28T11:41:39.106Z,29.47
2022-08-28T11:44:12.385Z,29.52
2022-08-28T11:46:47.462Z,29.41
2022-08-28T11:49:29.209Z,29.94
2022-08-28T11:52:10.918Z,29.38
2022-08-28T11:55:02.423Z,29.76
2022-08-28T12:00:49.276Z,30.30
2022-08-28T12:03:38.418Z,29.78
2022-08-28T12:06:06.837Z,29.91
2022-08-28T12:08:46.603Z,29.94
2022-08-28T12:11:41.149Z,29.92
2022-08-28T12:14:32.007Z,29.23
2022-08-28T12:16:58.461Z,29.56
2022-08-28T12:19:55.929Z,28.93
2022-08-28T12:22:44.504Z,29.29
2022-08-28T12:25:18.231Z,29.97
2022-08-28T12:27:44.834Z,29.09
2022-08-28T12:30:12.161Z,29.09
2022-08-28T12:32:59.850Z,29.46
2022-08-28T12:35:29.840Z,29.03
2022-08-28T12:37:57.330Z,29.02
2022-08-28T12:40:50.384Z,29.14
2022-08-28T12:43:32.140Z,28.82
2022-08-28T12:46:04.028Z,28.53
2022-08-28T12:48:51.507Z,28.44
2022-08-28T12:51:30.979Z,28.16
2022-08-28T12:54:03.822Z,27.48
2022-08-28T12:56:34.124Z,27.50
2022-08-28T12:59:32.505Z,27.91
2022-08-28T13:02:03.249Z,29.11
2022-08-28T13:04:36.888Z,27.95
2022-08-28T13:07:10.888Z,27.67
2022-08-28T13:09:42.238Z,27.79
2022-08-28T13:12:22.905Z,27.74
2022-08-28T13:15:02.657Z,27.56
2022-08-28T13:17:50.529Z,28.25
2022-08-28T13:20:27.984Z,27.84
2022-08-28T13:22:55.544Z,27.95
2022-08-28T13:25:29.513Z,27.76
2022-08-28T13:28:20.559Z,27.57
2022-08-28T13:30:58.123Z,27.63
2022-08-28T13:33:26.848Z,27.67
2022-08-28T13:35:53.917Z,27.31
2022-08-28T13:38:25.039Z,26.91
2022-08-28T13:40:58.438Z,26.96
2022-08-28T13:43:28.555Z,26.90
2022-08-28T13:45:55.616Z,26.87
2022-08-28T13:48:25.139Z,26.89
2022-08-28T13:51:01.685Z,26.31
2022-08-28T13:53:29.962Z,27.61
2022-08-28T13:56:00.180Z,27.61
2022-08-28T13:58:28.231Z,28.03
2022-08-28T14:00:55.477Z,26.53
2022-08-28T14:03:38.138Z,26.49
2022-08-28T14:06:12.442Z,26.27
2022-08-28T14:08:40.679Z,26.31
2022-08-28T14:11:07.737Z,26.80
2022-08-28T14:13:35.964Z,26.71
2022-08-28T14:16:07.882Z,26.96
2022-08-28T14:18:35.041Z,26.91
2022-08-28T14:21:05.048Z,26.65
2022-08-28T14:23:31.631Z,26.89
2022-08-28T14:25:58.187Z,26.87
2022-08-28T14:28:24.697Z,26.71
2022-08-28T14:30:51.862Z,26.16
2022-08-28T14:33:20.523Z,26.31
2022-08-28T14:35:48.883Z,26.11
2022-08-28T14:38:16.070Z,26.11
2022-08-28T14:40:43.689Z,26.24
2022-08-28T14:43:12.115Z,26.14
2022-08-28T14:45:49.821Z,27.21
2022-08-28T14:48:18.428Z,26.44
2022-08-28T14:50:47.973Z,26.32
2022-08-28T14:53:15.752Z,26.56
2022-08-28T14:55:49.986Z,26.47
2022-08-28T14:58:18.311Z,26.40
2022-08-28T15:00:48.905Z,26.33
2022-08-28T15:03:17.275Z,26.19
2022-08-28T15:05:44.587Z,27.30
2022-08-28T15:08:15.300Z,25.94
2022-08-28T15:10:42.869Z,25.69
2022-08-28T15:13:10.666Z,25.60
2022-08-28T15:15:42.572Z,25.44
2022-08-28T15:18:11.031Z,25.53
2022-08-28T15:20:42.184Z,26.70
2022-08-28T15:23:09.617Z,25.94
2022-08-28T15:25:36.209Z,25.98
2022-08-28T15:28:02.936Z,25.39
2022-08-28T15:30:29.624Z,25.68
2022-08-28T15:32:56.246Z,25.74
2022-08-28T15:35:22.848Z,25.38
2022-08-28T15:37:49.456Z,25.48
2022-08-28T15:40:34.468Z,25.75
2022-08-28T15:43:01.181Z,25.37
2022-08-28T15:45:27.834Z,25.10
2022-08-28T15:47:54.697Z,25.48
2022-08-28T15:50:21.322Z,25.57
2022-08-28T15:52:48.457Z,25.46
2022-08-28T15:55:14.984Z,25.39
2022-08-28T15:57:41.517Z,25.10
2022-08-28T16:00:10.532Z,25.33
2022-08-28T16:02:38.523Z,25.08
2022-08-28T16:05:06.058Z,25.25
2022-08-28T16:07:32.728Z,24.95
2022-08-28T16:09:59.227Z,25.45
2022-08-28T16:12:25.752Z,25.02
2022-08-28T16:14:52.380Z,24.83
2022-08-28T16:17:19.009Z,24.63
2022-08-28T16:19:46.589Z,24.89
2022-08-28T16:22:16.757Z,24.97
2022-08-28T16:24:44.985Z,25.11
2022-08-28T16:27:15.400Z,24.93
2022-08-28T16:29:43.263Z,25.15
2022-08-28T16:32:11.797Z,25.17
2022-08-28T16:34:38.947Z,25.17
2022-08-28T16:37:08.003Z,25.20
2022-08-28T16:39:35.811Z,24.93
2022-08-28T16:42:02.399Z,25.21
2022-08-28T16:44:28.900Z,24.92
2022-08-28T16:46:56.025Z,24.81
2022-08-28T16:49:23.891Z,25.05
2022-08-28T16:51:51.126Z,25.10
2022-08-28T16:54:18.423Z,25.09
2022-08-28T16:56:45.691Z,25.16
2022-08-28T16:59:12.632Z,25.19
2022-08-28T17:01:40.946Z,25.08
2022-08-28T17:04:09.556Z,25.05
2022-08-28T17:06:36.119Z,24.84
2022-08-28T17:09:02.650Z,24.94
2022-08-28T17:11:29.386Z,25.28
2022-08-28T17:13:56.827Z,25.15
2022-08-28T17:16:26.010Z,25.11
2022-08-28T17:18:53.011Z,25.42
2022-08-28T17:21:40.117Z,25.90
2022-08-28T17:24:07.374Z,25.92
2022-08-28T17:26:34.017Z,25.73
2022-08-28T17:29:00.614Z,25.46
2022-08-28T17:31:27.446Z,25.68
2022-08-28T17:33:54.351Z,25.88
2022-08-28T17:36:33.411Z,25.99
2022-08-28T17:39:02.307Z,25.97
2022-08-28T17:41:29.069Z,25.97
2022-08-28T17:43:55.565Z,26.20
2022-08-28T17:46:22.530Z,26.14
2022-08-28T17:48:55.690Z,26.36
2022-08-28T17:51:42.925Z,25.95
2022-08-28T17:54:18.383Z,26.30
2022-08-28T17:56:45.055Z,26.11
2022-08-28T17:59:12.504Z,26.09
2022-08-28T18:01:39.341Z,26.46
2022-08-28T18:04:05.944Z,26.20
2022-08-28T18:06:32.752Z,26.69
2022-08-28T18:08:59.388Z,26.41
2022-08-28T18:11:26.213Z,26.85
2022-08-28T18:13:53.078Z,26.39
2022-08-28T18:16:19.616Z,26.38
2022-08-28T18:18:46.258Z,26.81
2022-08-28T18:21:14.124Z,26.38
2022-08-28T18:23:40.741Z,26.89
2022-08-28T18:26:08.582Z,26.96
2022-08-28T18:28:36.976Z,26.94
2022-08-28T18:31:06.595Z,26.96
2022-08-28T18:33:34.307Z,27.03
2022-08-28T18:36:01.117Z,26.86
2022-08-28T18:38:28.632Z,27.10
2022-08-28T18:40:56.190Z,27.40
2022-08-28T18:43:23.971Z,27.54
2022-08-28T18:45:51.322Z,27.52
2022-08-28T18:48:19.217Z,27.35
2022-08-28T18:50:47.473Z,27.52
2022-08-28T18:53:19.368Z,27.51
2022-08-28T18:55:46.106Z,27.84
2022-08-28T18:58:15.452Z,27.67
2022-08-28T19:00:43.615Z,27.97
2022-08-28T19:03:11.027Z,27.98
2022-08-28T19:05:38.538Z,28.01
2022-08-28T19:08:05.596Z,28.28
2022-08-28T19:10:34.718Z,28.32
2022-08-28T19:13:02.620Z,28.18
2022-08-28T19:15:30.214Z,28.58
2022-08-28T19:18:00.292Z,28.55
2022-08-28T19:20:28.099Z,28.52
2022-08-28T19:22:56.284Z,28.56
2022-08-28T19:25:28.194Z,28.67
2022-08-28T19:27:59.790Z,28.99
2022-08-28T19:30:29.060Z,29.09
2022-08-28T19:32:55.863Z,29.13
2022-08-28T19:35:24.173Z,29.20
2022-08-28T19:37:54.303Z,29.38
2022-08-28T19:40:22.240Z,29.25
2022-08-28T19:42:50.062Z,29.38
2022-08-28T19:45:17.929Z,29.33
2022-08-28T19:47:45.398Z,29.31
2022-08-28T19:50:13.910Z,29.42
2022-08-28T19:52:40.957Z,29.38
2022-08-28T19:55:08.902Z,29.54
2022-08-28T19:57:35.583Z,29.67
2022-08-28T20:00:04.068Z,29.99
2022-08-28T20:02:30.645Z,30.03
2022-08-28T20:04:57.519Z,30.42
2022-08-28T20:07:25.098Z,30.40
2022-08-28T20:09:52.369Z,30.68
2022-08-28T20:12:19.458Z,30.55
2022-08-28T20:14:47.125Z,30.90
2022-08-28T20:17:14.064Z,31.10
2022-08-28T20:19:41.210Z,31.05
2022-08-28T20:22:07.724Z,31.19
2022-08-28T20:24:34.499Z,31.46
2022-08-28T20:27:01.007Z,31.62
2022-08-28T20:29:27.543Z,31.61
2022-08-28T20:31:54.180Z,32.21
2022-08-28T20:34:21.310Z,31.95
2022-08-28T20:36:48.535Z,32.05
2022-08-28T20:39:15.571Z,32.09
2022-08-28T20:41:43.887Z,32.46
2022-08-28T20:44:12.898Z,32.63
2022-08-28T20:46:42.100Z,32.32
2022-08-28T20:49:10.909Z,32.90
2022-08-28T20:51:55.806Z,32.32
2022-08-28T20:54:36.503Z,32.84
2022-08-28T20:57:07.793Z,33.06
2022-08-28T20:59:39.525Z,32.98
2022-08-28T21:02:22.944Z,33.39
2022-08-28T21:04:50.247Z,33.34
2022-08-28T21:07:19.954Z,33.50
2022-08-28T21:10:03.931Z,33.01
2022-08-28T21:12:34.595Z,33.20
2022-08-28T21:15:01.277Z,33.76
2022-08-28T21:17:29.777Z,33.46
2022-08-28T21:20:11.646Z,34.15
2022-08-28T21:22:39.412Z,33.84
2022-08-28T21:25:08.827Z,33.92
2022-08-28T21:27:36.359Z,34.07
2022-08-28T21:30:05.024Z,34.11
2022-08-28T21:32:33.854Z,34.18
2022-08-28T21:35:02.331Z,34.71
2022-08-28T21:37:29.170Z,34.48
2022-08-28T21:39:57.867Z,34.48
2022-08-28T21:42:25.044Z,34.63
2022-08-28T21:44:52.252Z,34.48
2022-08-28T21:47:21.448Z,35.07
2022-08-28T21:49:49.525Z,34.99
2022-08-28T21:52:18.549Z,35.20
2022-08-28T21:54:45.121Z,35.33
2022-08-28T21:57:11.705Z,35.28
2022-08-28T21:59:38.951Z,35.36
2022-08-28T22:02:06.015Z,35.34
2022-08-28T22:04:33.020Z,35.61
2022-08-28T22:06:59.505Z,35.64
2022-08-28T22:09:26.095Z,35.79
2022-08-28T22:11:52.669Z,35.72
2022-08-28T22:14:19.231Z,35.95
2022-08-28T22:16:46.414Z,36.31
2022-08-28T22:19:12.991Z,36.43
2022-08-28T22:21:58.120Z,36.41
2022-08-28T22:24:24.720Z,36.38
2022-08-28T22:26:53.250Z,36.75
2022-08-28T22:29:24.745Z,36.80
2022-08-28T22:31:51.473Z,36.85
2022-08-28T22:34:18.699Z,37.08
2022-08-28T22:36:45.198Z,36.91
2022-08-28T22:39:11.739Z,37.29
2022-08-28T22:41:38.656Z,37.41
2022-08-28T22:44:05.313Z,37.23
2022-08-28T22:46:31.822Z,37.38
2022-08-28T22:48:59.251Z,37.70
2022-08-28T22:51:25.735Z,37.21
2022-08-28T22:53:52.491Z,37.94
2022-08-28T22:56:18.985Z,37.62
2022-08-28T22:58:45.726Z,37.95
2022-08-28T23:01:17.499Z,37.98
2022-08-28T23:03:45.111Z,37.78
2022-08-28T23:06:12.398Z,37.88
2022-08-28T23:08:38.899Z,37.50
2022-08-28T23:11:06.292Z,38.32
2022-08-28T23:13:33.013Z,37.96
2022-08-28T23:16:01.491Z,38.61
2022-08-28T23:18:28.756Z,37.96
2022-08-28T23:20:56.093Z,38.30
2022-08-28T23:23:22.956Z,38.38
2022-08-28T23:25:50.502Z,38.37
2022-08-28T23:28:18.395Z,38.70
2022-08-28T23:30:49.528Z,38.91
2022-08-28T23:33:23.815Z,38.63
2022-08-28T23:35:51.612Z,38.96
2022-08-28T23:38:18.423Z,38.76
2022-08-28T23:40:48.084Z,38.86
2022-08-28T23:43:15.207Z,39.35
2022-08-28T23:45:42.896Z,39.19
2022-08-28T23:48:10.036Z,39.10
2022-08-28T23:50:40.317Z,39.67
2022-08-28T23:53:08.427Z,39.48
2022-08-28T23:55:35.986Z,39.42
2022-08-28T23:58:03.363Z,39.81
